createdAt,value
2019-04-05T00:01:37.803Z,100189.85
2019-04-05T00:04:06.249Z,100187.38
2019-04-05T00:06:34.777Z,100186.69
2019-04-05T00:09:04.662Z,100193.39
2019-04-05T00:11:33.034Z,100199.03
2019-04-05T00:14:01.618Z,100191.72
2019-04-05T00:16:30.083Z,100184.37
2019-04-05T00:18:58.499Z,100179.57
2019-04-05T00:21:26.994Z,100181.70
2019-04-05T00:23:55.449Z,100177.85
2019-04-05T00:26:23.929Z,100178.34
2019-04-05T00:28:52.359Z,100176.17
2019-04-05T00:31:20.854Z,100173.36
2019-04-05T00:33:49.321Z,100161.02
2019-04-05T00:36:17.791Z,100156.72
2019-04-05T00:38:46.262Z,100152.87
2019-04-05T00:41:14.686Z,100154.70
2019-04-05T00:43:43.185Z,100154.36
2019-04-05T00:46:11.642Z,100155.00
2019-04-05T00:48:40.131Z,100170.00
2019-04-05T00:51:08.602Z,100150.70
2019-04-05T00:53:37.022Z,100153.86
2019-04-05T00:56:05.631Z,100156.68
2019-04-05T00:58:34.100Z,100163.49
2019-04-05T01:01:02.529Z,100159.84
2019-04-05T01:03:31.003Z,100173.86
2019-04-05T01:05:59.429Z,100179.87
2019-04-05T01:08:27.898Z,100165.13
2019-04-05T01:10:56.354Z,100162.23
2019-04-05T01:13:25.600Z,100160.22
2019-04-05T01:15:54.062Z,100164.63
2019-04-05T01:18:22.489Z,100165.75
2019-04-05T01:20:53.840Z,100170.95
2019-04-05T01:23:23.150Z,100178.46
2019-04-05T01:25:53.852Z,100184.62
2019-04-05T01:28:23.150Z,100189.66
2019-04-05T01:30:51.590Z,100175.98
2019-04-05T01:33:20.187Z,100186.45
2019-04-05T01:35:48.623Z,100180.97
2019-04-05T01:38:17.645Z,100175.64
2019-04-05T01:40:47.456Z,100189.31
2019-04-05T01:43:16.452Z,100193.13
2019-04-05T01:45:53.531Z,100176.67
2019-04-05T01:48:16.840Z,100193.96
2019-04-05T01:50:45.308Z,100202.45
2019-04-05T01:53:13.834Z,100207.78
2019-04-05T01:55:42.270Z,100206.15
2019-04-05T01:58:10.746Z,100197.97
2019-04-05T02:00:39.170Z,100191.50
2019-04-05T02:03:07.637Z,100195.98
2019-04-05T02:05:36.170Z,100197.47
2019-04-05T02:08:05.127Z,100201.47
2019-04-05T02:10:33.597Z,100198.46
2019-04-05T02:13:02.041Z,100195.98
2019-04-05T02:15:33.640Z,100191.14
2019-04-05T02:18:02.099Z,100183.45
2019-04-05T02:20:30.616Z,100189.89
2019-04-05T02:22:59.179Z,100188.86
2019-04-05T02:25:27.792Z,100186.23
2019-04-05T02:27:56.344Z,100184.22
2019-04-05T02:30:25.446Z,100178.84
2019-04-05T02:32:53.968Z,100183.82
2019-04-05T02:35:22.382Z,100173.16
2019-04-05T02:37:50.873Z,100025.20
2019-04-05T02:40:21.214Z,100173.66
2019-04-05T02:42:52.510Z,100169.61
2019-04-05T02:45:21.510Z,100170.45
2019-04-05T02:47:52.990Z,100167.75
2019-04-05T02:50:24.526Z,100164.20
2019-04-05T02:52:56.066Z,100157.38
2019-04-05T02:55:26.156Z,100161.67
2019-04-05T02:57:55.055Z,100163.70
2019-04-05T03:00:23.698Z,100164.22
2019-04-05T03:02:53.090Z,100178.16
2019-04-05T03:05:23.467Z,100173.81
2019-04-05T03:07:52.443Z,100181.61
2019-04-05T03:10:52.426Z,100183.24
2019-04-05T03:13:23.109Z,100185.72
2019-04-05T03:15:53.492Z,100201.88
2019-04-05T03:18:25.199Z,100190.88
2019-04-05T03:20:57.726Z,100188.38
2019-04-05T03:23:27.083Z,100195.56
2019-04-05T03:25:58.867Z,100199.87
2019-04-05T03:28:28.431Z,100197.75
2019-04-05T03:30:57.246Z,100198.24
2019-04-05T03:33:25.757Z,100205.10
2019-04-05T03:35:54.936Z,100208.11
2019-04-05T03:38:24.715Z,100209.78
2019-04-05T03:40:54.224Z,100215.31
2019-04-05T03:43:22.733Z,100202.23
2019-04-05T03:45:51.536Z,100221.19
2019-04-05T03:48:20.045Z,100226.19
2019-04-05T03:50:48.551Z,100237.17
2019-04-05T03:53:16.988Z,100237.83
2019-04-05T03:55:45.939Z,100240.49
2019-04-05T03:58:14.355Z,100232.50
2019-04-05T04:00:43.168Z,100235.85
2019-04-05T04:03:11.594Z,100239.85
2019-04-05T04:05:40.194Z,100244.05
2019-04-05T04:08:08.654Z,100243.20
2019-04-05T04:10:37.073Z,100244.20
2019-04-05T04:13:05.781Z,100243.70
2019-04-05T04:15:34.386Z,100238.77
2019-04-05T04:18:04.859Z,100244.05
2019-04-05T04:20:40.160Z,100248.59
2019-04-05T04:23:10.241Z,100254.55
2019-04-05T04:25:40.736Z,100246.61
2019-04-05T04:28:10.314Z,100248.24
2019-04-05T04:30:39.148Z,100261.67
2019-04-05T04:33:07.583Z,100259.64
2019-04-05T04:35:36.357Z,100255.33
2019-04-05T04:38:05.752Z,100254.50
2019-04-05T04:40:34.341Z,100253.33
2019-04-05T04:43:03.119Z,100253.82
2019-04-05T04:45:32.707Z,100256.83
2019-04-05T04:48:01.727Z,100264.33
2019-04-05T04:50:31.289Z,100266.50
2019-04-05T04:53:00.446Z,100264.53
2019-04-05T04:55:29.382Z,100275.39
2019-04-05T04:57:57.875Z,100279.73
2019-04-05T05:00:27.152Z,100288.56
2019-04-05T05:02:55.659Z,100295.58
2019-04-05T05:05:24.625Z,100306.44
2019-04-05T05:07:53.544Z,100297.11
2019-04-05T05:10:22.631Z,100293.62
2019-04-05T05:12:51.420Z,100292.28
2019-04-05T05:15:20.949Z,100288.34
2019-04-05T05:17:58.509Z,100285.38
2019-04-05T05:20:20.676Z,100280.53
2019-04-05T05:22:49.261Z,100288.53
2019-04-05T05:25:17.847Z,100292.38
2019-04-05T05:27:47.311Z,100295.20
2019-04-05T05:30:15.813Z,100286.21
2019-04-05T05:32:44.465Z,100286.85
2019-04-05T05:35:13.165Z,100287.54
2019-04-05T05:37:41.909Z,100294.44
2019-04-05T05:40:11.369Z,100292.76
2019-04-05T05:42:39.809Z,100297.71
2019-04-05T05:45:09.789Z,100295.78
2019-04-05T05:47:50.641Z,100304.11
2019-04-05T05:50:08.693Z,100162.04
2019-04-05T05:52:37.392Z,100306.44
2019-04-05T05:55:06.888Z,100213.57
2019-04-05T05:57:35.322Z,100298.80
2019-04-05T06:00:06.014Z,100297.11
2019-04-05T06:02:38.378Z,100289.11
2019-04-05T06:05:06.477Z,100293.22
2019-04-05T06:07:34.933Z,100297.59
2019-04-05T06:10:05.436Z,100299.78
2019-04-05T06:12:33.874Z,100302.28
2019-04-05T06:15:02.395Z,100307.42
2019-04-05T06:17:30.948Z,100319.96
2019-04-05T06:19:59.430Z,100319.63
2019-04-05T06:22:27.902Z,100322.49
2019-04-05T06:24:56.350Z,100326.34
2019-04-05T06:27:25.586Z,100327.03
2019-04-05T06:29:54.064Z,100329.90
2019-04-05T06:32:22.518Z,100326.09
2019-04-05T06:34:50.969Z,100323.09
2019-04-05T06:37:19.430Z,100315.63
2019-04-05T06:39:53.627Z,100321.77
2019-04-05T06:42:27.136Z,100314.29
2019-04-05T06:44:55.620Z,100314.95
2019-04-05T06:47:24.065Z,100323.14
2019-04-05T06:49:55.078Z,100327.14
2019-04-05T06:52:23.528Z,100322.00
2019-04-05T06:54:51.973Z,100332.17
2019-04-05T06:57:20.473Z,100324.22
2019-04-05T06:59:48.932Z,100330.41
2019-04-05T07:02:18.535Z,100330.11
2019-04-05T07:04:47.019Z,100330.34
2019-04-05T07:07:17.882Z,100330.34
2019-04-05T07:09:45.617Z,100335.14
2019-04-05T07:12:14.076Z,100331.67
2019-04-05T07:14:42.510Z,100341.89
2019-04-05T07:17:10.946Z,100343.72
2019-04-05T07:19:39.380Z,100339.53
2019-04-05T07:22:07.828Z,100341.70
2019-04-05T07:24:36.256Z,100343.53
2019-04-05T07:27:04.749Z,100348.56
2019-04-05T07:29:33.177Z,100348.57
2019-04-05T07:32:01.612Z,100359.74
2019-04-05T07:34:30.051Z,100366.41
2019-04-05T07:36:58.494Z,100366.27
2019-04-05T07:39:26.938Z,100364.28
2019-04-05T07:41:55.378Z,100361.46
2019-04-05T07:44:23.813Z,100360.66
2019-04-05T07:46:52.275Z,100357.84
2019-04-05T07:49:20.705Z,100354.19
2019-04-05T07:51:49.142Z,100351.33
2019-04-05T07:54:17.572Z,100360.86
2019-04-05T07:56:46.419Z,100359.88
2019-04-05T07:59:14.932Z,100364.22
2019-04-05T08:01:43.382Z,100367.42
2019-04-05T08:04:11.814Z,100375.28
2019-04-05T08:06:43.054Z,100374.25
2019-04-05T08:09:14.114Z,100379.82
2019-04-05T08:11:44.393Z,100376.47
2019-04-05T08:14:13.996Z,100384.62
2019-04-05T08:16:42.428Z,100388.17
2019-04-05T08:19:10.865Z,100391.16
2019-04-05T08:21:39.314Z,100393.83
2019-04-05T08:24:07.799Z,100398.17
2019-04-05T08:26:36.234Z,100399.55
2019-04-05T08:29:05.205Z,100404.92
2019-04-05T08:31:33.659Z,100401.12
2019-04-05T08:34:02.074Z,100403.02
2019-04-05T08:36:32.739Z,100396.54
2019-04-05T08:39:00.668Z,100394.90
2019-04-05T08:41:29.139Z,100395.77
2019-04-05T08:43:57.565Z,100390.47
2019-04-05T08:46:26.428Z,100389.63
2019-04-05T08:48:54.831Z,100394.69
2019-04-05T08:51:23.267Z,100300.39
2019-04-05T08:53:51.703Z,100392.89
2019-04-05T08:56:20.151Z,100392.13
2019-04-05T08:58:48.598Z,100402.33
2019-04-05T09:01:17.034Z,100394.67
2019-04-05T09:03:45.474Z,100387.86
2019-04-05T09:06:13.904Z,100389.91
2019-04-05T09:08:42.363Z,100389.40
2019-04-05T09:11:10.823Z,100387.75
2019-04-05T09:13:39.265Z,100389.27
2019-04-05T09:16:07.775Z,100384.59
2019-04-05T09:18:36.207Z,100372.56
2019-04-05T09:21:04.643Z,100378.07
2019-04-05T09:23:33.085Z,99984.61
2019-04-05T09:26:01.512Z,100372.41
2019-04-05T09:28:29.951Z,100376.91
2019-04-05T09:30:58.400Z,100376.25
2019-04-05T09:33:26.813Z,100376.59
2019-04-05T09:35:55.315Z,100378.94
2019-04-05T09:38:23.742Z,100375.11
2019-04-05T09:40:52.178Z,100374.62
2019-04-05T09:43:20.634Z,100380.98
2019-04-05T09:45:49.079Z,100382.16
2019-04-05T09:48:17.507Z,100383.20
2019-04-05T09:50:45.952Z,100387.70
2019-04-05T09:53:14.391Z,100382.02
2019-04-05T09:55:42.817Z,100381.71
2019-04-05T09:58:11.255Z,100387.73
2019-04-05T10:00:39.991Z,100387.06
2019-04-05T10:03:08.414Z,100388.91
2019-04-05T10:05:36.874Z,100381.21
2019-04-05T10:08:05.321Z,100386.73
2019-04-05T10:10:33.741Z,100386.09
2019-04-05T10:13:02.183Z,100387.08
2019-04-05T10:15:30.612Z,100386.76
2019-04-05T10:17:59.087Z,100389.92
2019-04-05T10:20:27.546Z,100403.98
2019-04-05T10:22:55.995Z,100410.36
2019-04-05T10:25:24.449Z,100411.69
2019-04-05T10:27:53.184Z,100411.69
2019-04-05T10:30:21.771Z,100418.04
2019-04-05T10:32:50.208Z,100422.57
2019-04-05T10:35:18.642Z,100416.87
2019-04-05T10:37:47.083Z,100417.05
2019-04-05T10:40:15.706Z,100323.66
2019-04-05T10:42:44.160Z,100403.48
2019-04-05T10:45:12.852Z,100401.81
2019-04-05T10:47:41.347Z,100407.34
2019-04-05T10:50:12.759Z,100404.34
2019-04-05T10:52:41.276Z,100400.97
2019-04-05T10:55:10.876Z,100395.04
2019-04-05T10:57:39.324Z,100397.34
2019-04-05T11:00:11.136Z,100394.41
2019-04-05T11:02:39.575Z,100395.86
2019-04-05T11:05:08.033Z,100408.33
2019-04-05T11:07:36.508Z,100413.60
2019-04-05T11:10:07.135Z,100426.48
2019-04-05T11:12:35.563Z,100430.36
2019-04-05T11:15:06.363Z,100426.14
2019-04-05T11:17:34.814Z,100422.27
2019-04-05T11:20:20.128Z,100421.86
2019-04-05T11:22:34.857Z,100412.97
2019-04-05T11:25:03.644Z,100417.47
2019-04-05T11:27:32.086Z,100417.97
2019-04-05T11:30:00.529Z,100400.46
2019-04-05T11:32:28.990Z,100416.07
2019-04-05T11:34:57.487Z,100422.67
2019-04-05T11:37:27.006Z,100420.88
2019-04-05T11:39:55.731Z,100423.60
2019-04-05T11:42:25.943Z,100422.63
2019-04-05T11:44:56.713Z,100419.40
2019-04-05T11:47:25.155Z,100414.56
2019-04-05T11:49:55.251Z,100409.58
2019-04-05T11:52:23.724Z,100410.47
2019-04-05T11:54:52.158Z,100406.34
2019-04-05T11:57:20.606Z,100404.30
2019-04-05T11:59:49.295Z,100405.88
2019-04-05T12:02:19.597Z,100404.11
2019-04-05T12:04:48.073Z,100405.33
2019-04-05T12:07:16.504Z,100409.82
2019-04-05T12:09:45.970Z,100409.75
2019-04-05T12:12:15.236Z,100417.22
2019-04-05T12:14:43.707Z,100409.50
2019-04-05T12:17:12.315Z,100406.87
2019-04-05T12:19:40.763Z,100404.41
2019-04-05T12:22:09.411Z,100401.52
2019-04-05T12:24:38.200Z,100402.08
2019-04-05T12:27:06.671Z,100397.64
2019-04-05T12:29:35.101Z,100396.44
2019-04-05T12:32:03.557Z,100402.19
2019-04-05T12:34:31.983Z,100405.60
2019-04-05T12:37:00.428Z,100413.59
2019-04-05T12:39:28.855Z,100415.18
2019-04-05T12:41:57.308Z,100406.92
2019-04-05T12:44:25.761Z,100411.78
2019-04-05T12:46:54.198Z,100415.76
2019-04-05T12:49:22.662Z,100416.52
2019-04-05T12:51:51.109Z,100413.78
2019-04-05T12:54:19.543Z,100418.39
2019-04-05T12:56:47.986Z,100424.33
2019-04-05T12:59:16.484Z,100438.53
2019-04-05T13:01:45.642Z,100444.97
2019-04-05T13:04:15.014Z,100440.87
2019-04-05T13:06:43.529Z,100444.98
2019-04-05T13:09:13.025Z,100443.19
2019-04-05T13:11:41.704Z,100442.35
2019-04-05T13:14:10.130Z,100443.58
2019-04-05T13:16:38.578Z,100439.45
2019-04-05T13:19:07.006Z,100437.97
2019-04-05T13:21:35.453Z,100435.44
2019-04-05T13:24:06.875Z,100437.50
2019-04-05T13:26:36.832Z,100443.97
2019-04-05T13:29:04.927Z,100436.15
2019-04-05T13:31:33.357Z,100439.75
2019-04-05T13:34:01.823Z,100438.91
2019-04-05T13:36:30.324Z,100438.62
2019-04-05T13:39:00.326Z,100433.86
2019-04-05T13:41:31.395Z,100436.12
2019-04-05T13:44:01.215Z,100437.41
2019-04-05T13:46:28.625Z,100443.95
2019-04-05T13:48:56.993Z,100441.50
2019-04-05T13:51:28.587Z,100441.22
2019-04-05T13:53:55.653Z,100437.06
2019-04-05T13:56:24.090Z,100438.50
2019-04-05T13:58:52.523Z,100441.92
2019-04-05T14:01:21.389Z,100436.73
2019-04-05T14:03:50.719Z,100443.94
2019-04-05T14:06:19.408Z,100438.01
2019-04-05T14:08:47.837Z,100435.91
2019-04-05T14:11:16.275Z,100432.80
2019-04-05T14:13:44.731Z,100435.52
2019-04-05T14:16:13.269Z,100437.27
2019-04-05T14:18:49.426Z,100434.16
2019-04-05T14:21:12.896Z,100426.97
2019-04-05T14:23:41.340Z,100429.61
2019-04-05T14:26:09.780Z,100431.84
2019-04-05T14:28:38.235Z,100429.05
2019-04-05T14:31:06.671Z,100431.09
2019-04-05T14:33:35.131Z,100424.55
2019-04-05T14:36:03.566Z,100427.05
2019-04-05T14:38:32.003Z,100424.17
2019-04-05T14:41:00.442Z,100423.70
2019-04-05T14:43:28.913Z,100422.61
2019-04-05T14:45:57.426Z,100430.20
2019-04-05T14:48:28.107Z,100431.68
2019-04-05T14:50:57.969Z,100427.16
2019-04-05T14:53:26.185Z,100418.08
2019-04-05T14:55:59.025Z,100427.91
2019-04-05T14:58:26.728Z,100421.90
2019-04-05T15:00:55.168Z,100426.52
2019-04-05T15:03:23.617Z,100424.85
2019-04-05T15:05:52.195Z,100425.55
2019-04-05T15:08:21.211Z,100426.41
2019-04-05T15:10:51.379Z,100435.69
2019-04-05T15:13:20.107Z,100431.14
2019-04-05T15:15:48.578Z,100428.38
2019-04-05T15:18:19.373Z,100425.10
2019-04-05T15:20:47.178Z,100423.31
2019-04-05T15:23:15.633Z,100418.23
2019-04-05T15:25:44.087Z,100418.11
2019-04-05T15:28:12.526Z,100420.48
2019-04-05T15:30:41.008Z,100416.41
2019-04-05T15:33:09.429Z,100411.88
2019-04-05T15:35:37.870Z,100412.09
2019-04-05T15:38:06.328Z,100410.75
2019-04-05T15:40:35.038Z,100408.44
2019-04-05T15:43:03.793Z,100416.41
2019-04-05T15:45:32.242Z,100423.20
2019-04-05T15:48:00.681Z,100418.89
2019-04-05T15:50:29.169Z,100415.83
2019-04-05T15:53:01.904Z,100421.13
2019-04-05T15:55:27.765Z,100421.86
2019-04-05T15:57:56.316Z,100425.09
2019-04-05T16:00:31.661Z,100428.52
2019-04-05T16:03:02.552Z,100427.39
2019-04-05T16:05:30.817Z,100425.00
2019-04-05T16:07:59.251Z,100433.17
2019-04-05T16:10:27.688Z,100432.32
2019-04-05T16:12:56.127Z,100438.16
2019-04-05T16:15:24.560Z,100435.97
2019-04-05T16:17:52.998Z,100439.66
2019-04-05T16:20:21.506Z,100438.23
2019-04-05T16:22:49.939Z,100447.86
2019-04-05T16:25:18.376Z,100447.93
2019-04-05T16:27:46.809Z,100449.47
2019-04-05T16:30:15.510Z,100447.34
2019-04-05T16:32:43.953Z,100456.26
2019-04-05T16:35:14.640Z,100456.43
2019-04-05T16:37:42.732Z,100461.39
2019-04-05T16:40:11.726Z,100461.06
2019-04-05T16:42:40.170Z,100464.16
2019-04-05T16:45:10.507Z,100463.64
2019-04-05T16:47:38.945Z,100469.73
2019-04-05T16:50:08.421Z,100471.75
2019-04-05T16:52:44.687Z,100470.77
2019-04-05T16:55:07.358Z,100472.81
2019-04-05T16:57:35.825Z,100471.98
2019-04-05T17:00:07.734Z,100464.95
2019-04-05T17:02:36.236Z,100380.84
2019-04-05T17:05:06.793Z,100472.37
2019-04-05T17:07:35.230Z,100476.39
2019-04-05T17:10:04.704Z,100485.62
2019-04-05T17:12:33.164Z,100485.95
2019-04-05T17:15:01.608Z,100490.14
2019-04-05T17:17:30.086Z,100489.34
2019-04-05T17:19:58.543Z,100494.87
2019-04-05T17:22:26.994Z,100495.55
2019-04-05T17:24:55.506Z,100496.41
2019-04-05T17:27:24.720Z,100499.11
2019-04-05T17:29:54.686Z,100496.60
2019-04-05T17:32:23.140Z,100504.80
2019-04-05T17:34:51.611Z,100497.42
2019-04-05T17:37:20.144Z,100507.14
2019-04-05T17:39:48.574Z,100504.48
2019-04-05T17:42:17.432Z,100502.81
2019-04-05T17:44:45.846Z,100501.63
2019-04-05T17:47:14.369Z,100504.64
2019-04-05T17:49:42.837Z,100504.81
2019-04-05T17:52:11.346Z,100511.84
2019-04-05T17:54:39.796Z,100514.34
2019-04-05T17:57:08.224Z,100516.69
2019-04-05T17:59:38.085Z,100516.69
2019-04-05T18:02:06.716Z,100253.47
2019-04-05T18:04:37.404Z,100498.09
2019-04-05T18:07:05.867Z,100521.39
2019-04-05T18:09:34.376Z,100525.56
2019-04-05T18:12:02.874Z,100528.08
2019-04-05T18:14:31.345Z,100525.55
2019-04-05T18:16:59.789Z,100524.86
2019-04-05T18:19:28.261Z,100524.86
2019-04-05T18:21:56.698Z,100528.20
2019-04-05T18:24:25.131Z,100534.57
2019-04-05T18:26:53.577Z,100540.25
2019-04-05T18:29:22.006Z,100540.92
2019-04-05T18:31:50.463Z,100543.91
2019-04-05T18:34:18.899Z,100551.95
2019-04-05T18:36:48.535Z,100552.45
2019-04-05T18:39:16.967Z,100554.63
2019-04-05T18:41:45.428Z,100556.97
2019-04-05T18:44:13.855Z,100560.64
2019-04-05T18:46:43.105Z,100559.66
2019-04-05T18:49:11.559Z,100560.98
2019-04-05T18:51:39.980Z,100562.16
2019-04-05T18:54:08.405Z,100563.00
2019-04-05T18:56:36.851Z,100570.69
2019-04-05T18:59:05.319Z,100561.98
2019-04-05T19:01:33.756Z,100560.30
2019-04-05T19:04:05.240Z,100565.66
2019-04-05T19:06:32.408Z,100562.30
2019-04-05T19:09:00.857Z,100564.80
2019-04-05T19:11:29.317Z,100563.63
2019-04-05T19:14:01.324Z,100560.94
2019-04-05T19:16:27.919Z,100567.15
2019-04-05T19:18:56.375Z,100567.47
2019-04-05T19:21:24.816Z,100570.48
2019-04-05T19:23:53.256Z,100570.64
2019-04-05T19:26:21.698Z,100575.84
2019-04-05T19:28:50.127Z,100580.16
2019-04-05T19:48:49.903Z,100603.72
2019-04-05T19:51:18.362Z,100599.39
2019-04-05T19:53:46.784Z,100599.39
2019-04-05T19:56:15.241Z,100603.72
2019-04-05T19:58:43.666Z,100613.92
2019-04-05T20:01:13.656Z,100606.24
2019-04-05T20:03:42.102Z,100604.06
2019-04-05T20:06:10.568Z,100612.75
2019-04-05T20:08:38.998Z,100606.72
2019-04-05T20:11:07.552Z,100607.88
2019-04-05T20:13:35.972Z,100612.41
2019-04-05T20:16:04.685Z,100609.55
2019-04-05T20:18:33.117Z,100607.38
2019-04-05T20:21:01.555Z,100615.41
2019-04-05T20:23:30.010Z,100619.42
2019-04-05T20:25:58.439Z,100625.77
2019-04-05T20:28:26.902Z,100627.26
2019-04-05T20:30:55.337Z,100632.45
2019-04-05T20:33:23.767Z,100620.23
2019-04-05T20:35:52.216Z,100624.59
2019-04-05T20:38:20.677Z,100623.06
2019-04-05T20:40:49.124Z,100626.89
2019-04-05T20:43:17.588Z,100627.39
2019-04-05T20:45:46.011Z,100627.05
2019-04-05T20:48:14.444Z,100631.55
2019-04-05T20:50:42.881Z,100642.57
2019-04-05T20:53:11.319Z,100545.63
2019-04-05T20:55:39.777Z,100642.73
2019-04-05T20:58:08.218Z,100650.06
2019-04-05T21:00:36.686Z,100639.86
2019-04-05T21:03:05.132Z,100639.70
2019-04-05T21:05:33.583Z,100642.38
2019-04-05T21:08:02.028Z,100642.20
2019-04-05T21:10:30.522Z,100641.81
2019-04-05T21:12:58.991Z,100644.98
2019-04-05T21:15:27.431Z,100636.77
2019-04-05T21:17:55.844Z,100252.52
2019-04-05T21:20:24.335Z,100637.34
2019-04-05T21:22:52.795Z,100542.09
2019-04-05T21:25:21.249Z,100635.53
2019-04-05T21:27:49.715Z,100639.61
2019-04-05T21:30:18.917Z,100640.81
2019-04-05T21:32:47.372Z,100644.37
2019-04-05T21:35:15.819Z,100649.11
2019-04-05T21:37:44.303Z,100650.64
2019-04-05T21:40:12.832Z,100645.66
2019-04-05T21:42:41.267Z,100646.73
2019-04-05T21:45:10.070Z,100645.11
2019-04-05T21:47:38.507Z,100645.48
2019-04-05T21:50:09.778Z,100646.59
2019-04-05T21:52:38.244Z,100650.88
2019-04-05T21:55:08.125Z,100653.98
2019-04-05T21:57:36.649Z,100654.97
2019-04-05T22:00:24.628Z,100658.48
2019-04-05T22:02:53.176Z,100671.13
2019-04-05T22:05:21.631Z,100671.97
2019-04-05T22:07:51.627Z,100675.33
2019-04-05T22:10:20.290Z,100672.52
2019-04-05T22:12:49.806Z,100677.92
2019-04-05T22:15:18.290Z,100678.97
2019-04-05T22:17:46.795Z,100680.48
2019-04-05T22:20:15.534Z,100685.17
2019-04-05T22:22:44.431Z,100677.17
2019-04-05T22:25:13.003Z,100677.37
2019-04-05T22:27:41.426Z,100681.73
2019-04-05T22:30:10.353Z,100686.92
2019-04-05T22:32:38.823Z,100702.45
2019-04-05T22:35:07.524Z,100683.81
2019-04-05T22:37:36.014Z,100687.33
2019-04-05T22:40:06.516Z,100686.52
2019-04-05T22:42:34.991Z,100693.39
2019-04-05T22:45:04.255Z,100696.97
2019-04-05T22:47:32.758Z,100693.66
2019-04-05T22:50:01.221Z,100692.20
2019-04-05T22:52:29.658Z,100698.73
2019-04-05T22:54:58.095Z,100696.75
2019-04-05T22:57:26.569Z,100686.62
2019-04-05T22:59:55.006Z,100690.48
2019-04-05T23:02:23.448Z,100611.42
2019-04-05T23:04:51.928Z,100687.54
2019-04-05T23:07:20.357Z,100685.56
2019-04-05T23:09:48.845Z,100691.95
2019-04-05T23:12:17.354Z,100689.62
2019-04-05T23:14:45.729Z,100689.97
2019-04-05T23:17:14.207Z,100690.31
2019-04-05T23:19:42.681Z,100689.19
2019-04-05T23:22:11.097Z,100686.86
2019-04-05T23:24:39.604Z,100688.54
2019-04-05T23:27:08.140Z,100684.84
2019-04-05T23:29:36.613Z,100686.03
2019-04-05T23:32:05.087Z,100680.84
2019-04-05T23:34:33.569Z,100676.83
2019-04-05T23:37:01.997Z,100683.34
2019-04-05T23:39:30.472Z,100684.48
2019-04-05T23:41:58.943Z,100677.11
2019-04-05T23:44:27.370Z,100683.23
2019-04-05T23:46:55.805Z,100670.66
2019-04-05T23:49:24.234Z,100657.39
2019-04-05T23:51:52.741Z,100659.00
2019-04-05T23:54:21.162Z,100653.89
2019-04-05T23:56:49.597Z,100656.13
2019-04-05T23:59:18.085Z,100660.02
